sensor_id;sensor_type;location;lat;lon;timestamp;pressure;altitude;pressure_sealevel;temperature;humidity
75815;BME280;64451;45.574;14.224;2023-04-03T00:01:21;96659.31;;;7.81;70.44
75815;BME280;64451;45.574;14.224;2023-04-03T00:05:30;96659.84;;;7.83;70.14
75815;BME280;64451;45.574;14.224;2023-04-03T00:09:39;96647.47;;;7.93;69.63
75815;BME280;64451;45.574;14.224;2023-04-03T00:11:45;96648.03;;;7.95;68.81
75815;BME280;64451;45.574;14.224;2023-04-03T00:13:55;96668.16;;;7.87;69.64
75815;BME280;64451;45.574;14.224;2023-04-03T00:16:01;96644.78;;;7.93;68.50
75815;BME280;64451;45.574;14.224;2023-04-03T00:18:07;96650.97;;;7.93;68.84
75815;BME280;64451;45.574;14.224;2023-04-03T00:20:12;96656.88;;;7.95;67.97
75815;BME280;64451;45.574;14.224;2023-04-03T00:22:40;96652.06;;;7.87;68.68
75815;BME280;64451;45.574;14.224;2023-04-03T00:25:06;96659.78;;;7.99;67.83
75815;BME280;64451;45.574;14.224;2023-04-03T00:27:16;96648.56;;;7.92;68.22
75815;BME280;64451;45.574;14.224;2023-04-03T00:29:23;96650.44;;;7.96;67.34
75815;BME280;64451;45.574;14.224;2023-04-03T00:33:32;96656.31;;;7.93;68.18
75815;BME280;64451;45.574;14.224;2023-04-03T00:40:01;96673.75;;;7.91;68.06
75815;BME280;64451;45.574;14.224;2023-04-03T00:42:20;96672.38;;;7.93;67.62
75815;BME280;64451;45.574;14.224;2023-04-03T00:46:54;96673.25;;;7.83;68.05
75815;BME280;64451;45.574;14.224;2023-04-03T00:49:10;96678.34;;;7.80;67.92
75815;BME280;64451;45.574;14.224;2023-04-03T00:51:32;96685.31;;;7.81;67.43
75815;BME280;64451;45.574;14.224;2023-04-03T00:53:52;96684.72;;;7.94;67.08
75815;BME280;64451;45.574;14.224;2023-04-03T00:56:26;96686.97;;;7.72;68.41
75815;BME280;64451;45.574;14.224;2023-04-03T00:58:34;96688.56;;;7.78;67.59
75815;BME280;64451;45.574;14.224;2023-04-03T01:00:55;96695.47;;;7.84;67.69
75815;BME280;64451;45.574;14.224;2023-04-03T01:03:12;96694.19;;;7.61;68.31
75815;BME280;64451;45.574;14.224;2023-04-03T01:10:18;96694.50;;;7.44;69.12
75815;BME280;64451;45.574;14.224;2023-04-03T01:12:40;96673.38;;;7.43;68.58
75815;BME280;64451;45.574;14.224;2023-04-03T01:27:54;96682.81;;;6.99;69.96
75815;BME280;64451;45.574;14.224;2023-04-03T01:30:02;96677.97;;;7.01;68.67
75815;BME280;64451;45.574;14.224;2023-04-03T01:32:33;96688.97;;;7.05;67.80
75815;BME280;64451;45.574;14.224;2023-04-03T01:34:36;96701.78;;;7.03;68.43
75815;BME280;64451;45.574;14.224;2023-04-03T01:36:38;96685.47;;;7.10;67.21
75815;BME280;64451;45.574;14.224;2023-04-03T01:38:52;96686.00;;;7.17;66.84
75815;BME280;64451;45.574;14.224;2023-04-03T01:41:27;96687.34;;;6.94;68.22
75815;BME280;64451;45.574;14.224;2023-04-03T01:43:39;96688.69;;;6.66;70.57
75815;BME280;64451;45.574;14.224;2023-04-03T01:45:52;96692.16;;;6.66;70.63
75815;BME280;64451;45.574;14.224;2023-04-03T01:48:07;96686.84;;;6.71;68.91
75815;BME280;64451;45.574;14.224;2023-04-03T01:50:20;96684.97;;;6.82;68.60
75815;BME280;64451;45.574;14.224;2023-04-03T01:52:20;96687.91;;;6.81;68.27
75815;BME280;64451;45.574;14.224;2023-04-03T01:54:27;96684.94;;;6.62;69.39
75815;BME280;64451;45.574;14.224;2023-04-03T01:56:36;96686.81;;;6.66;68.83
75815;BME280;64451;45.574;14.224;2023-04-03T01:59:08;96694.31;;;6.54;69.30
75815;BME280;64451;45.574;14.224;2023-04-03T02:01:08;96696.19;;;6.64;68.20
75815;BME280;64451;45.574;14.224;2023-04-03T02:24:23;96676.09;;;6.41;66.79
75815;BME280;64451;45.574;14.224;2023-04-03T02:37:26;96674.16;;;6.11;66.69
75815;BME280;64451;45.574;14.224;2023-04-03T02:46:02;96658.16;;;6.36;63.73
75815;BME280;64451;45.574;14.224;2023-04-03T02:59:02;96663.78;;;6.25;61.77
75815;BME280;64451;45.574;14.224;2023-04-03T03:03:13;96653.09;;;6.35;61.83
75815;BME280;64451;45.574;14.224;2023-04-03T03:14:23;96661.63;;;6.27;61.35
75815;BME280;64451;45.574;14.224;2023-04-03T03:19:20;96646.38;;;6.07;62.24
75815;BME280;64451;45.574;14.224;2023-04-03T03:25:43;96655.34;;;5.80;63.36
75815;BME280;64451;45.574;14.224;2023-04-03T03:43:41;96661.19;;;5.77;61.26
75815;BME280;64451;45.574;14.224;2023-04-03T03:47:55;96652.19;;;5.88;59.28
75815;BME280;64451;45.574;14.224;2023-04-03T03:54:37;96637.66;;;5.69;59.35
75815;BME280;64451;45.574;14.224;2023-04-03T04:00:51;96642.75;;;5.71;59.91
75815;BME280;64451;45.574;14.224;2023-04-03T04:06:14;96639.13;;;5.92;56.92
75815;BME280;64451;45.574;14.224;2023-04-03T04:09:08;96639.84;;;5.72;57.25
75815;BME280;64451;45.574;14.224;2023-04-03T04:12:08;96640.91;;;5.76;56.59
75815;BME280;64451;45.574;14.224;2023-04-03T04:14:50;96663.88;;;5.77;57.35
75815;BME280;64451;45.574;14.224;2023-04-03T04:24:14;96657.81;;;5.34;59.03
75815;BME280;64451;45.574;14.224;2023-04-03T04:26:15;96684.75;;;5.33;57.90
75815;BME280;64451;45.574;14.224;2023-04-03T04:30:30;96675.72;;;5.39;56.83
75815;BME280;64451;45.574;14.224;2023-04-03T04:39:03;96686.41;;;5.39;57.11
75815;BME280;64451;45.574;14.224;2023-04-03T04:43:55;96688.66;;;5.20;56.79
75815;BME280;64451;45.574;14.224;2023-04-03T04:50:49;96679.06;;;5.19;56.49
75815;BME280;64451;45.574;14.224;2023-04-03T04:59:20;96685.91;;;5.05;56.79
75815;BME280;64451;45.574;14.224;2023-04-03T05:01:32;96683.31;;;5.15;55.86
75815;BME280;64451;45.574;14.224;2023-04-03T05:04:02;96693.47;;;5.18;56.44
75815;BME280;64451;45.574;14.224;2023-04-03T05:08:22;96688.59;;;5.10;57.01
75815;BME280;64451;45.574;14.224;2023-04-03T05:10:45;96700.97;;;5.26;55.26
75815;BME280;64451;45.574;14.224;2023-04-03T05:13:31;96696.66;;;5.15;55.38
75815;BME280;64451;45.574;14.224;2023-04-03T05:17:34;96688.31;;;5.06;55.85
75815;BME280;64451;45.574;14.224;2023-04-03T05:19:57;96696.28;;;5.39;54.91
75815;BME280;64451;45.574;14.224;2023-04-03T05:24:24;96679.13;;;5.82;52.95
75815;BME280;64451;45.574;14.224;2023-04-03T05:26:35;96693.72;;;5.64;52.99
75815;BME280;64451;45.574;14.224;2023-04-03T05:29:04;96695.78;;;5.99;53.56
75815;BME280;64451;45.574;14.224;2023-04-03T05:31:18;96686.41;;;6.02;53.44
75815;BME280;64451;45.574;14.224;2023-04-03T05:33:27;96688.28;;;5.96;53.26
75815;BME280;64451;45.574;14.224;2023-04-03T05:40:45;96696.91;;;5.61;52.72
75815;BME280;64451;45.574;14.224;2023-04-03T05:43:09;96698.53;;;5.67;52.75
75815;BME280;64451;45.574;14.224;2023-04-03T05:47:49;96696.47;;;5.84;52.56
75815;BME280;64451;45.574;14.224;2023-04-03T05:56:38;96710.25;;;6.13;52.24
75815;BME280;64451;45.574;14.224;2023-04-03T05:58:51;96695.81;;;6.14;50.87
75815;BME280;64451;45.574;14.224;2023-04-03T06:17:08;96696.69;;;6.51;48.25
75815;BME280;64451;45.574;14.224;2023-04-03T06:22:08;96721.81;;;6.44;50.34
75815;BME280;64451;45.574;14.224;2023-04-03T06:24:16;96702.53;;;6.32;48.88
75815;BME280;64451;45.574;14.224;2023-04-03T06:26:34;96720.63;;;6.10;51.86
75815;BME280;64451;45.574;14.224;2023-04-03T06:31:31;96702.97;;;6.04;51.10
75815;BME280;64451;45.574;14.224;2023-04-03T06:33:51;96713.44;;;6.10;50.48
75815;BME280;64451;45.574;14.224;2023-04-03T06:39:29;96710.97;;;5.94;50.27
75815;BME280;64451;45.574;14.224;2023-04-03T06:41:39;96725.19;;;6.09;51.53
75815;BME280;64451;45.574;14.224;2023-04-03T06:45:58;96715.97;;;5.85;50.71
75815;BME280;64451;45.574;14.224;2023-04-03T06:50:57;96717.22;;;5.67;51.37
75815;BME280;64451;45.574;14.224;2023-04-03T06:53:11;96717.44;;;5.60;53.00
75815;BME280;64451;45.574;14.224;2023-04-03T06:55:15;96722.06;;;6.43;49.55
75815;BME280;64451;45.574;14.224;2023-04-03T06:57:25;96709.00;;;6.67;50.76
75815;BME280;64451;45.574;14.224;2023-04-03T06:59:56;96721.31;;;6.78;49.41
75815;BME280;64451;45.574;14.224;2023-04-03T07:01:59;96737.09;;;6.85;49.79
75815;BME280;64451;45.574;14.224;2023-04-03T07:04:34;96735.22;;;7.26;48.81
75815;BME280;64451;45.574;14.224;2023-04-03T07:06:47;96745.34;;;7.65;45.10
75815;BME280;64451;45.574;14.224;2023-04-03T07:08:57;96730.66;;;7.47;46.94
75815;BME280;64451;45.574;14.224;2023-04-03T07:11:23;96751.81;;;7.33;47.00
75815;BME280;64451;45.574;14.224;2023-04-03T07:13:24;96743.81;;;7.23;45.30
75815;BME280;64451;45.574;14.224;2023-04-03T07:15:43;96762.53;;;7.38;46.01
75815;BME280;64451;45.574;14.224;2023-04-03T07:17:59;96755.84;;;7.05;47.16
75815;BME280;64451;45.574;14.224;2023-04-03T07:20:04;96755.03;;;7.40;47.73
75815;BME280;64451;45.574;14.224;2023-04-03T07:22:14;96771.03;;;7.76;45.51
75815;BME280;64451;45.574;14.224;2023-04-03T07:24:29;96748.84;;;8.45;43.77
75815;BME280;64451;45.574;14.224;2023-04-03T07:29:10;96747.56;;;7.37;46.41
75815;BME280;64451;45.574;14.224;2023-04-03T07:31:50;96753.63;;;7.73;45.16
75815;BME280;64451;45.574;14.224;2023-04-03T07:34:02;96724.53;;;8.21;45.90
75815;BME280;64451;45.574;14.224;2023-04-03T07:36:06;96741.34;;;7.62;44.17
75815;BME280;64451;45.574;14.224;2023-04-03T07:38:13;96749.19;;;8.18;45.15
75815;BME280;64451;45.574;14.224;2023-04-03T07:42:47;96742.06;;;7.93;45.80
75815;BME280;64451;45.574;14.224;2023-04-03T07:44:48;96761.69;;;8.53;43.77
75815;BME280;64451;45.574;14.224;2023-04-03T07:46:54;96754.16;;;7.75;43.61
75815;BME280;64451;45.574;14.224;2023-04-03T07:49:17;96749.66;;;7.50;43.77
75815;BME280;64451;45.574;14.224;2023-04-03T07:51:36;96758.19;;;7.78;44.48
75815;BME280;64451;45.574;14.224;2023-04-03T07:56:39;96723.75;;;8.15;45.46
75815;BME280;64451;45.574;14.224;2023-04-03T07:58:46;96761.88;;;7.92;45.87
75815;BME280;64451;45.574;14.224;2023-04-03T08:00:59;96771.53;;;8.03;43.08
75815;BME280;64451;45.574;14.224;2023-04-03T08:06:07;96742.16;;;8.32;42.42
75815;BME280;64451;45.574;14.224;2023-04-03T08:08:46;96740.19;;;7.94;44.43
75815;BME280;64451;45.574;14.224;2023-04-03T08:11:09;96726.63;;;8.39;43.28
75815;BME280;64451;45.574;14.224;2023-04-03T08:13:45;96715.50;;;8.02;45.10
75815;BME280;64451;45.574;14.224;2023-04-03T08:18:32;96742.03;;;7.98;42.82
75815;BME280;64451;45.574;14.224;2023-04-03T08:27:09;96754.56;;;8.23;44.50
75815;BME280;64451;45.574;14.224;2023-04-03T08:29:10;96748.94;;;8.20;42.69
75815;BME280;64451;45.574;14.224;2023-04-03T08:31:19;96758.25;;;8.27;44.30
75815;BME280;64451;45.574;14.224;2023-04-03T08:33:28;96742.34;;;7.92;42.05
75815;BME280;64451;45.574;14.224;2023-04-03T08:43:40;96748.81;;;7.80;43.21
75815;BME280;64451;45.574;14.224;2023-04-03T09:10:41;96774.13;;;9.17;43.48
75815;BME280;64451;45.574;14.224;2023-04-03T09:15:29;96775.19;;;8.17;44.64
75815;BME280;64451;45.574;14.224;2023-04-03T09:22:40;96770.88;;;8.32;42.90
75815;BME280;64451;45.574;14.224;2023-04-03T09:25:32;96767.63;;;8.45;44.33
75815;BME280;64451;45.574;14.224;2023-04-03T09:27:56;96783.78;;;9.18;44.81
75815;BME280;64451;45.574;14.224;2023-04-03T09:30:29;96773.44;;;8.57;41.33
75815;BME280;64451;45.574;14.224;2023-04-03T09:32:34;96782.41;;;8.27;42.36
75815;BME280;64451;45.574;14.224;2023-04-03T09:34:36;96766.03;;;8.34;43.69
75815;BME280;64451;45.574;14.224;2023-04-03T09:36:58;96759.47;;;9.05;43.48
75815;BME280;64451;45.574;14.224;2023-04-03T09:39:26;96759.59;;;9.23;42.67
75815;BME280;64451;45.574;14.224;2023-04-03T09:41:40;96765.13;;;9.66;41.62
75815;BME280;64451;45.574;14.224;2023-04-03T09:44:40;96746.94;;;9.82;38.24
75815;BME280;64451;45.574;14.224;2023-04-03T09:46:40;96764.44;;;9.50;39.82
75815;BME280;64451;45.574;14.224;2023-04-03T09:49:04;96762.25;;;9.87;44.91
75815;BME280;64451;45.574;14.224;2023-04-03T09:54:34;96751.59;;;8.79;42.34
75815;BME280;64451;45.574;14.224;2023-04-03T09:57:01;96766.31;;;8.37;42.65
75815;BME280;64451;45.574;14.224;2023-04-03T10:01:37;96776.78;;;8.29;42.11
75815;BME280;64451;45.574;14.224;2023-04-03T10:16:16;96745.16;;;8.80;43.32
75815;BME280;64451;45.574;14.224;2023-04-03T10:34:29;96745.53;;;9.90;41.22
75815;BME280;64451;45.574;14.224;2023-04-03T10:44:44;96744.22;;;8.56;43.74
75815;BME280;64451;45.574;14.224;2023-04-03T10:47:24;96744.16;;;8.66;43.34
75815;BME280;64451;45.574;14.224;2023-04-03T10:57:03;96732.91;;;9.03;42.24
75815;BME280;64451;45.574;14.224;2023-04-03T10:59:38;96737.59;;;9.21;41.23
75815;BME280;64451;45.574;14.224;2023-04-03T11:01:42;96728.75;;;9.21;40.81
75815;BME280;64451;45.574;14.224;2023-04-03T11:03:51;96737.53;;;8.92;42.57
75815;BME280;64451;45.574;14.224;2023-04-03T11:10:46;96744.63;;;10.23;42.17
75815;BME280;64451;45.574;14.224;2023-04-03T11:13:30;96709.84;;;9.60;41.96
75815;BME280;64451;45.574;14.224;2023-04-03T11:15:39;96702.19;;;9.19;40.53
75815;BME280;64451;45.574;14.224;2023-04-03T11:17:46;96710.84;;;8.77;44.12
75815;BME280;64451;45.574;14.224;2023-04-03T11:20:23;96708.78;;;8.98;42.44
75815;BME280;64451;45.574;14.224;2023-04-03T11:22:31;96709.91;;;8.92;42.44
75815;BME280;64451;45.574;14.224;2023-04-03T11:27:33;96713.28;;;9.37;39.58
75815;BME280;64451;45.574;14.224;2023-04-03T11:41:04;96675.25;;;9.53;40.99
75815;BME280;64451;45.574;14.224;2023-04-03T11:47:55;96670.56;;;10.87;38.99
75815;BME280;64451;45.574;14.224;2023-04-03T12:01:47;96673.50;;;10.10;40.30
75815;BME280;64451;45.574;14.224;2023-04-03T12:04:11;96665.69;;;9.42;39.00
75815;BME280;64451;45.574;14.224;2023-04-03T12:19:51;96655.38;;;9.78;40.72
75815;BME280;64451;45.574;14.224;2023-04-03T12:24:50;96646.38;;;10.31;38.41
75815;BME280;64451;45.574;14.224;2023-04-03T12:49:00;96634.94;;;10.90;39.87
75815;BME280;64451;45.574;14.224;2023-04-03T12:58:42;96632.38;;;9.67;37.49
75815;BME280;64451;45.574;14.224;2023-04-03T13:11:41;96630.69;;;9.52;42.38
75815;BME280;64451;45.574;14.224;2023-04-03T13:14:27;96631.66;;;10.42;41.62
75815;BME280;64451;45.574;14.224;2023-04-03T13:23:24;96642.47;;;9.75;40.90
75815;BME280;64451;45.574;14.224;2023-04-03T13:28:24;96636.91;;;9.48;43.49
75815;BME280;64451;45.574;14.224;2023-04-03T13:37:28;96626.41;;;8.93;40.62
75815;BME280;64451;45.574;14.224;2023-04-03T13:40:20;96626.47;;;9.17;42.76
75815;BME280;64451;45.574;14.224;2023-04-03T13:53:16;96611.25;;;9.37;37.58
75815;BME280;64451;45.574;14.224;2023-04-03T13:55:52;96627.25;;;9.47;40.06
75815;BME280;64451;45.574;14.224;2023-04-03T13:58:31;96618.41;;;9.17;37.84
75815;BME280;64451;45.574;14.224;2023-04-03T14:01:11;96622.75;;;8.84;41.38
75815;BME280;64451;45.574;14.224;2023-04-03T14:11:30;96600.34;;;9.28;41.18
75815;BME280;64451;45.574;14.224;2023-04-03T14:13:33;96583.16;;;9.00;39.38
75815;BME280;64451;45.574;14.224;2023-04-03T14:15:39;96579.38;;;8.43;40.91
75815;BME280;64451;45.574;14.224;2023-04-03T14:17:42;96599.88;;;8.63;41.02
75815;BME280;64451;45.574;14.224;2023-04-03T14:19:44;96595.31;;;8.63;42.52
75815;BME280;64451;45.574;14.224;2023-04-03T14:22:05;96598.66;;;9.08;41.39
75815;BME280;64451;45.574;14.224;2023-04-03T14:33:24;96577.38;;;8.88;39.70
75815;BME280;64451;45.574;14.224;2023-04-03T14:35:44;96572.63;;;8.80;39.42
75815;BME280;64451;45.574;14.224;2023-04-03T14:38:23;96585.94;;;8.90;40.90
75815;BME280;64451;45.574;14.224;2023-04-03T14:40:27;96556.22;;;9.10;40.04
75815;BME280;64451;45.574;14.224;2023-04-03T14:43:34;96550.88;;;8.52;40.61
75815;BME280;64451;45.574;14.224;2023-04-03T14:46:11;96567.06;;;8.42;42.47
75815;BME280;64451;45.574;14.224;2023-04-03T14:51:11;96573.78;;;8.34;41.26
75815;BME280;64451;45.574;14.224;2023-04-03T14:53:25;96556.91;;;8.34;39.93
75815;BME280;64451;45.574;14.224;2023-04-03T14:55:27;96560.44;;;8.63;41.12
75815;BME280;64451;45.574;14.224;2023-04-03T15:03:14;96571.38;;;8.38;42.02
75815;BME280;64451;45.574;14.224;2023-04-03T15:05:56;96568.47;;;8.29;41.13
75815;BME280;64451;45.574;14.224;2023-04-03T15:07:57;96572.47;;;8.37;42.21
75815;BME280;64451;45.574;14.224;2023-04-03T15:10:16;96576.25;;;8.65;43.30
75815;BME280;64451;45.574;14.224;2023-04-03T15:12:17;96569.00;;;8.65;41.00
75815;BME280;64451;45.574;14.224;2023-04-03T15:16:48;96591.97;;;8.77;40.24
75815;BME280;64451;45.574;14.224;2023-04-03T15:19:02;96570.66;;;8.61;40.53
75815;BME280;64451;45.574;14.224;2023-04-03T15:21:13;96567.06;;;8.42;39.71
75815;BME280;64451;45.574;14.224;2023-04-03T15:23:15;96563.34;;;8.33;40.75
75815;BME280;64451;45.574;14.224;2023-04-03T15:25:19;96558.53;;;8.30;39.80
75815;BME280;64451;45.574;14.224;2023-04-03T15:27:25;96566.06;;;8.28;40.55
75815;BME280;64451;45.574;14.224;2023-04-03T15:29:29;96572.50;;;8.27;40.25
75815;BME280;64451;45.574;14.224;2023-04-03T15:31:29;96556.31;;;8.42;41.10
75815;BME280;64451;45.574;14.224;2023-04-03T15:36:04;96568.19;;;8.31;41.39
75815;BME280;64451;45.574;14.224;2023-04-03T15:38:33;96557.59;;;8.50;39.97
75815;BME280;64451;45.574;14.224;2023-04-03T15:51:34;96563.03;;;8.44;39.89
75815;BME280;64451;45.574;14.224;2023-04-03T15:54:07;96551.34;;;8.59;41.23
75815;BME280;64451;45.574;14.224;2023-04-03T16:04:50;96563.84;;;7.51;41.79
75815;BME280;64451;45.574;14.224;2023-04-03T16:10:26;96572.50;;;7.87;41.73
75815;BME280;64451;45.574;14.224;2023-04-03T16:12:29;96565.13;;;7.64;42.68
75815;BME280;64451;45.574;14.224;2023-04-03T16:14:32;96620.34;;;7.50;42.02
75815;BME280;64451;45.574;14.224;2023-04-03T16:16:33;96571.91;;;7.46;42.62
75815;BME280;64451;45.574;14.224;2023-04-03T16:18:35;96571.09;;;7.46;43.10
75815;BME280;64451;45.574;14.224;2023-04-03T16:20:35;96599.19;;;7.53;42.47
75815;BME280;64451;45.574;14.224;2023-04-03T16:22:36;96589.91;;;7.25;43.13
75815;BME280;64451;45.574;14.224;2023-04-03T16:24:40;96599.00;;;7.29;44.49
75815;BME280;64451;45.574;14.224;2023-04-03T16:26:41;96576.75;;;7.39;41.63
75815;BME280;64451;45.574;14.224;2023-04-03T16:28:50;96578.63;;;7.33;43.53
75815;BME280;64451;45.574;14.224;2023-04-03T16:31:11;96572.81;;;7.16;41.99
75815;BME280;64451;45.574;14.224;2023-04-03T16:33:14;96584.06;;;7.13;42.50
75815;BME280;64451;45.574;14.224;2023-04-03T16:35:15;96583.28;;;7.02;45.56
75815;BME280;64451;45.574;14.224;2023-04-03T16:41:34;96585.47;;;6.70;42.76
75815;BME280;64451;45.574;14.224;2023-04-03T16:43:35;96595.34;;;6.69;43.59
75815;BME280;64451;45.574;14.224;2023-04-03T16:45:45;96574.78;;;6.50;44.81
75815;BME280;64451;45.574;14.224;2023-04-03T16:47:46;96596.97;;;6.60;44.61
75815;BME280;64451;45.574;14.224;2023-04-03T16:49:49;96581.19;;;6.54;46.43
75815;BME280;64451;45.574;14.224;2023-04-03T16:51:52;96589.22;;;6.48;44.44
75815;BME280;64451;45.574;14.224;2023-04-03T16:53:58;96592.44;;;6.40;45.79
75815;BME280;64451;45.574;14.224;2023-04-03T16:55:59;96604.19;;;6.24;46.41
75815;BME280;64451;45.574;14.224;2023-04-03T16:57:59;96584.66;;;6.08;43.78
75815;BME280;64451;45.574;14.224;2023-04-03T17:00:06;96610.59;;;6.23;45.14
75815;BME280;64451;45.574;14.224;2023-04-03T17:02:13;96621.03;;;6.25;43.91
75815;BME280;64451;45.574;14.224;2023-04-03T17:04:13;96591.91;;;6.23;43.58
75815;BME280;64451;45.574;14.224;2023-04-03T17:06:21;96600.44;;;6.05;45.16
75815;BME280;64451;45.574;14.224;2023-04-03T17:08:33;96601.75;;;6.07;45.58
75815;BME280;64451;45.574;14.224;2023-04-03T17:10:36;96584.13;;;6.01;44.92
75815;BME280;64451;45.574;14.224;2023-04-03T17:12:42;96600.38;;;5.95;44.15
75815;BME280;64451;45.574;14.224;2023-04-03T17:14:49;96601.66;;;5.72;45.69
75815;BME280;64451;45.574;14.224;2023-04-03T17:16:59;96604.84;;;5.63;47.54
75815;BME280;64451;45.574;14.224;2023-04-03T17:19:05;96609.41;;;5.78;44.28
75815;BME280;64451;45.574;14.224;2023-04-03T17:21:06;96610.66;;;5.50;46.35
75815;BME280;64451;45.574;14.224;2023-04-03T17:23:12;96620.06;;;5.63;45.66
75815;BME280;64451;45.574;14.224;2023-04-03T17:25:16;96600.81;;;5.61;46.66
75815;BME280;64451;45.574;14.224;2023-04-03T17:27:22;96603.47;;;5.56;46.04
75815;BME280;64451;45.574;14.224;2023-04-03T17:29:22;96620.19;;;5.36;47.40
75815;BME280;64451;45.574;14.224;2023-04-03T17:31:25;96598.03;;;5.35;45.96
75815;BME280;64451;45.574;14.224;2023-04-03T17:33:26;96611.66;;;5.34;46.20
75815;BME280;64451;45.574;14.224;2023-04-03T17:35:32;96608.31;;;5.06;49.55
75815;BME280;64451;45.574;14.224;2023-04-03T17:37:41;96621.50;;;4.86;47.59
75815;BME280;64451;45.574;14.224;2023-04-03T17:39:48;96614.94;;;4.99;49.31
75815;BME280;64451;45.574;14.224;2023-04-03T17:41:48;96635.78;;;5.12;46.21
75815;BME280;64451;45.574;14.224;2023-04-03T17:43:51;96622.81;;;5.26;46.15
75815;BME280;64451;45.574;14.224;2023-04-03T17:46:03;96641.16;;;5.17;46.95
75815;BME280;64451;45.574;14.224;2023-04-03T17:48:04;96624.53;;;5.00;48.03
75815;BME280;64451;45.574;14.224;2023-04-03T17:50:14;96612.00;;;5.00;47.45
75815;BME280;64451;45.574;14.224;2023-04-03T17:52:21;96641.13;;;5.07;46.28
75815;BME280;64451;45.574;14.224;2023-04-03T17:54:27;96621.00;;;4.89;47.04
75815;BME280;64451;45.574;14.224;2023-04-03T17:56:27;96622.63;;;4.95;46.08
75815;BME280;64451;45.574;14.224;2023-04-03T17:58:30;96646.13;;;4.98;46.71
75815;BME280;64451;45.574;14.224;2023-04-03T18:00:31;96660.28;;;5.04;46.57
75815;BME280;64451;45.574;14.224;2023-04-03T18:02:43;96649.13;;;5.12;47.45
75815;BME280;64451;45.574;14.224;2023-04-03T18:04:51;96647.84;;;5.15;45.44
75815;BME280;64451;45.574;14.224;2023-04-03T18:06:55;96661.66;;;5.12;45.91
75815;BME280;64451;45.574;14.224;2023-04-03T18:09:06;96660.28;;;5.04;46.79
75815;BME280;64451;45.574;14.224;2023-04-03T18:11:17;96649.06;;;4.97;46.88
75815;BME280;64451;45.574;14.224;2023-04-03T18:13:18;96663.66;;;4.89;46.75
75815;BME280;64451;45.574;14.224;2023-04-03T18:15:23;96659.91;;;4.85;46.77
75815;BME280;64451;45.574;14.224;2023-04-03T18:17:24;96656.16;;;4.81;47.78
75815;BME280;64451;45.574;14.224;2023-04-03T18:19:34;96662.19;;;4.71;48.03
75815;BME280;64451;45.574;14.224;2023-04-03T18:21:41;96660.91;;;4.79;46.37
75815;BME280;64451;45.574;14.224;2023-04-03T18:23:52;96679.28;;;4.75;46.75
75815;BME280;64451;45.574;14.224;2023-04-03T18:25:53;96666.53;;;4.83;46.42
75815;BME280;64451;45.574;14.224;2023-04-03T18:27:54;96663.34;;;4.81;45.59
75815;BME280;64451;45.574;14.224;2023-04-03T18:30:14;96676.50;;;4.60;46.83
75815;BME280;64451;45.574;14.224;2023-04-03T18:32:25;96688.88;;;4.76;47.16
75815;BME280;64451;45.574;14.224;2023-04-03T18:34:26;96682.47;;;4.72;46.75
75815;BME280;64451;45.574;14.224;2023-04-03T18:36:35;96679.81;;;4.72;46.14
75815;BME280;64451;45.574;14.224;2023-04-03T18:38:41;96682.81;;;4.54;48.44
75815;BME280;64451;45.574;14.224;2023-04-03T18:40:45;96703.75;;;4.67;45.86
75815;BME280;64451;45.574;14.224;2023-04-03T18:42:46;96692.44;;;4.55;47.17
75815;BME280;64451;45.574;14.224;2023-04-03T18:45:01;96676.69;;;4.54;46.14
75815;BME280;64451;45.574;14.224;2023-04-03T18:47:12;96682.88;;;4.59;46.95
75815;BME280;64451;45.574;14.224;2023-04-03T18:49:21;96682.03;;;4.54;46.89
75815;BME280;64451;45.574;14.224;2023-04-03T18:51:25;96704.19;;;4.59;47.29
75815;BME280;64451;45.574;14.224;2023-04-03T18:53:29;96698.00;;;4.54;46.52
75815;BME280;64451;45.574;14.224;2023-04-03T18:55:38;96684.91;;;4.47;46.16
75815;BME280;64451;45.574;14.224;2023-04-03T18:57:39;96680.34;;;4.42;45.06
75815;BME280;64451;45.574;14.224;2023-04-03T18:59:42;96701.91;;;4.41;47.77
75815;BME280;64451;45.574;14.224;2023-04-03T19:01:43;96698.31;;;4.30;46.41
75815;BME280;64451;45.574;14.224;2023-04-03T19:03:53;96690.81;;;4.22;46.84
75815;BME280;64451;45.574;14.224;2023-04-03T19:06:00;96712.41;;;4.26;47.23
75815;BME280;64451;45.574;14.224;2023-04-03T19:08:12;96708.88;;;4.20;46.61
75815;BME280;64451;45.574;14.224;2023-04-03T19:10:15;96688.00;;;4.12;48.11
75815;BME280;64451;45.574;14.224;2023-04-03T19:12:33;96708.78;;;4.10;46.83
75815;BME280;64451;45.574;14.224;2023-04-03T19:16:58;96696.00;;;4.12;45.53
75815;BME280;64451;45.574;14.224;2023-04-03T19:19:18;96679.63;;;3.98;46.66
75815;BME280;64451;45.574;14.224;2023-04-03T19:21:25;96714.38;;;4.13;45.20
75815;BME280;64451;45.574;14.224;2023-04-03T19:23:25;96703.69;;;4.08;45.18
75815;BME280;64451;45.574;14.224;2023-04-03T19:25:26;96682.84;;;4.00;46.19
75815;BME280;64451;45.574;14.224;2023-04-03T19:27:29;96702.53;;;3.99;46.39
75815;BME280;64451;45.574;14.224;2023-04-03T19:29:39;96678.69;;;3.87;46.66
75815;BME280;64451;45.574;14.224;2023-04-03T19:32:05;96699.00;;;3.93;45.23
75815;BME280;64451;45.574;14.224;2023-04-03T19:34:06;96724.81;;;3.93;46.26
75815;BME280;64451;45.574;14.224;2023-04-03T19:36:07;96694.91;;;3.86;45.77
75815;BME280;64451;45.574;14.224;2023-04-03T19:38:08;96685.22;;;3.75;45.62
75815;BME280;64451;45.574;14.224;2023-04-03T19:40:11;96694.81;;;3.76;45.45
75815;BME280;64451;45.574;14.224;2023-04-03T19:42:16;96704.56;;;3.70;45.39
75815;BME280;64451;45.574;14.224;2023-04-03T19:44:23;96730.88;;;3.66;45.91
75815;BME280;64451;45.574;14.224;2023-04-03T19:46:34;96703.56;;;3.54;46.62
75815;BME280;64451;45.574;14.224;2023-04-03T19:48:35;96711.16;;;3.46;47.35
75815;BME280;64451;45.574;14.224;2023-04-03T19:50:35;96722.44;;;3.53;47.90
75815;BME280;64451;45.574;14.224;2023-04-03T19:52:36;96740.25;;;3.52;46.52
75815;BME280;64451;45.574;14.224;2023-04-03T19:54:48;96733.84;;;3.48;47.36
75815;BME280;64451;45.574;14.224;2023-04-03T19:56:57;96698.00;;;3.34;47.82